AirNav   ATP
 
 610 users online  

KHQZ Mesquite Metro Airport
Mesquite, Texas, USA

GOING TO MESQUITE?


FAA INFORMATION EFFECTIVE 26 APRIL 2018

Location

FAA Identifier: HQZ
Lat/Long: 32-44-49.0660N / 096-31-49.5020W
32-44.817767N / 096-31.825033W
32.7469628 / -96.5304172
(estimated)
Elevation: 446.5 ft. / 136.1 m (surveyed)
Variation: 03E (2015)
From city: 3 miles E of MESQUITE, TX
Time zone: UTC -5 (UTC -6 during Standard Time)
Zip code: 75181

Airport Operations

Airport use: Open to the public
Activation date: 08/1976
Control tower: yes
ARTCC: FORT WORTH CENTER
FSS: FORT WORTH FLIGHT SERVICE STATION
NOTAMs facility: HQZ (NOTAM-D service available)
Attendance: 0800-2000
FOR ATTENDANT AFT HRS CALL 214-244-1959
Wind indicator: lighted
Segmented circle: yes
Lights: MIRL RY 18/36 PRESET LOW INTST; TO INCR INTST & ACTVT RLLS RY 18/36; REIL RY 18/36; PAPI RY 18/36; MIRL RY 18/36 - CTAF.
Beacon: white-green (lighted land airport)
Operates sunset to sunrise.

Airport Communications

CTAF: 120.3
UNICOM: 123.05
WX AWOS-3: 118.175 (972-222-7631)
MESQUITE GROUND: 118.85 [0700-2100]
MESQUITE TOWER: 120.3 [0700-2100]
REGIONAL APPROACH: 125.2
REGIONAL DEPARTURE: 125.2
EESAT STAR: 125.025 125.275
FINGR STAR: 124.3 125.275
GREGS STAR: 118.1
JFRYE STAR: 118.1
KNEAD STAR: 135.975
LOADS STAR: 125.025 125.275
SLANT STAR: 125.025 125.275
SWVAY STAR: 135.975
YEAGR STAR: 125.025 125.2 125.275
WX AWOS-3 at F46 (12 nm NE): 121.25 (972-772-6699)
WX ASOS at TRL (13 nm E): 119.275 (972-551-1334)
WX AWOS-3 at 49T (14 nm W): 135.425 (214-670-1243)
WX AWOS-3 at LNC (14 nm SW): 118.975 (972-227-0471)
WX ASOS at DAL (17 nm W): PHONE 214-353-1551
WX ASOS at RBD (18 nm W): PHONE 214-330-5317

Nearby radio navigation aids

VOR radial/distance  VOR name  Freq  Var
CVEr109/20.7COWBOY VOR/DME116.2006E
TTTr100/26.7MAVERICK VOR/DME113.1006E
FUZr099/33.8RANGER VORTAC115.7006E
CQYr329/37.2CEDAR CREEK VORTAC114.8006E

 
NDB name  Hdg/Dist  Freq  Var  ID
MESQUITE178/3.724803EPQF .--. --.- ..-.
TRAVIS261/14.226006EAVZ .- ...- --..
CADDO MILLS213/22.631606EMII -- .. ..
MELISA172/31.042103EVLY ...- .-.. -.--

Airport Services

Fuel available: 100LL JET-A
SELF-SERVE FUEL AVBL 24 HRS WITH MAJOR CREDIT CARD.
Parking: hangars and tiedowns
Airframe service: MAJOR
Powerplant service: MAJOR
Bottled oxygen: NONE
Bulk oxygen: HIGH

Runway Information

Runway 18/36

Dimensions: 6000 x 100 ft. / 1829 x 30 m
Surface: concrete, in good condition
Weight bearing capacity: 
Single wheel: 70.0
Double wheel: 100.0
Double tandem: 100.0
Runway edge lights: medium intensity
RUNWAY 18  RUNWAY 36
Latitude: 32-45.312350N32-44.323150N
Longitude: 096-31.816150W096-31.834200W
Elevation: 446.0 ft.441.9 ft.
Gradient: 0.1%0.1%
Traffic pattern: leftleft
Runway heading: 178 magnetic, 181 true358 magnetic, 001 true
Markings: precision, in good conditionnonprecision, in good condition
Visual slope indicator: 4-light PAPI on left (3.00 degrees glide path)4-light PAPI on left (3.00 degrees glide path)
Approach lights: RLLSRLLS
Runway end identifier lights: yesyes
Touchdown point: yes, no lightsyes, no lights
Instrument approach: ILS/DME
Obstructions: 20 ft. rr, 879 ft. from runway, 34:1 slope to clearnone

Airport Ownership and Management from official FAA records

Ownership: Publicly-owned
Owner: CITY OF MESQUITE
PO BOX 850137
MESQUITE, TX 75185-0137
Phone 972-288-7711
Manager: CYNTHIA GODFREY
1340 ARPT BLVD.
MESQUITE, TX 75181
Phone 972-216-4130

Airport Operational Statistics

Aircraft based on the field: 167
Single engine airplanes: 146
Multi engine airplanes: 14
Jet airplanes: 2
Helicopters: 5
    
Aircraft operations: avg 195/day *
55% local general aviation
44% transient general aviation
<1% military
<1% air taxi
<1% commercial
* for 12-month period ending 31 December 2015

Additional Remarks

BIRDS, COYOTES, & WILD HOGS ON & INVOF ARPT.
FOR CD WHEN ATCT IS CLSD CTC REGIONAL APCH AT 972-615-2799.

Instrument Procedures

NOTE: All procedures below are presented as PDF files. If you need a reader for these files, you should download the free Adobe Reader.

NOT FOR NAVIGATION. Please procure official charts for flight.
FAA instrument procedures published for use from 26 April 2018 at 901Z to 24 May 2018 at 0900Z.

 
STARs - Standard Terminal Arrivals
EESAT THREE (RNAV)   download (191KB)
FINGR FIVE   2 pages: [1] [2] (473KB)
GREGS EIGHT   2 pages: [1] [2] (558KB)
JFRYE THREE (RNAV)   download (243KB)
KNEAD SEVEN   2 pages: [1] [2] (449KB)
LOADS THREE (RNAV)   download (189KB)
SLANT THREE (RNAV)   download (229KB)
SWVAY FOUR (RNAV)   download (226KB)
YEAGR THREE   2 pages: [1] [2] (722KB)
 
IAPs - Instrument Approach Procedures
ILS OR LOC RWY 18 **CHANGED**   download (248KB)
RNAV (GPS) RWY 18 **CHANGED**   download (213KB)
RNAV (GPS) RWY 36 **CHANGED**   download (200KB)
LOC/DME BC RWY 36 **CHANGED**   download (224KB)
NOTE: Special Alternate Minimums apply   download (18KB)
 
Departure Procedures
DALLAS FOUR   2 pages: [1] [2] (500KB)
GARLAND SIX   2 pages: [1] [2] (326KB)
HUBBARD NINE   2 pages: [1] [2] (312KB)
JOE POOL NINE   2 pages: [1] [2] (508KB)
KINGDOM FOUR   2 pages: [1] [2] (350KB)
KUSSO FIVE (RNAV)   2 pages: [1] [2] (264KB)
SWABR FIVE (RNAV)   2 pages: [1] [2] (261KB)
TEXOMA FIVE   2 pages: [1] [2] (473KB)
WORTH ONE   2 pages: [1] [2] (490KB)
NOTE: Special Take-Off Minimums/Departure Procedures apply   download

Other nearby airports with instrument procedures:

F46 - Ralph M Hall/Rockwall Municipal Airport (12 nm NE)
KTRL - Terrell Municipal Airport (13 nm E)
KLNC - Lancaster Regional Airport (14 nm SW)
KDAL - Dallas Love Field Airport (17 nm W)
KRBD - Dallas Executive Airport (18 nm W)
 
Loc | Ops | Rwys | IFR | FBO | Links
Com | Nav | Svcs | Stats | Notes

AirNav Hotels Sweepstakes
 
Area around KHQZ (Mesquite Metro Airport)
 
Road maps at: MapQuest Bing Google
 
Aerial photo
WARNING: Photo may not be current or correct
Aerial photo of KHQZ (Mesquite Metro Airport)
Photo taken 16-May-2006

Do you have a better or more recent aerial photo of Mesquite Metro Airport that you would like to share? If so, please send us your photo.

 
Sectional chart

 
Airport diagram
CAUTION: Diagram may not be current
Diagram of KHQZ (Mesquite Metro Airport)
 
Airport distance calculator
Flying to Mesquite Metro Airport? Find the distance to fly.

From to KHQZ

Sunrise and sunset
Times for 20-May-2018
 Local
(UTC-5)
 Zulu
(UTC)
Morning civil twilight05:5810:58
Sunrise06:2511:25
Sunset20:2001:20
Evening civil twilight20:4801:48

Current date and time
Zulu (UTC)  21-May-2018 04:22:45
Local (UTC-5)  20-May-2018 23:22:45
 
METAR
KHQZ 210355Z AUTO 08003KT 10SM CLR 20/19 A3002 RMK AO1 T01980186
KF46 
12nm NE 
210355Z AUTO 15003KT 10SM CLR 20/20 A3003 RMK AO2 T02040196
KTRL 
13nm E 
210353Z AUTO 00000KT 10SM CLR 21/18 A3002 RMK AO2 SLP161 T02060183
KLNC 
14nm SW 
210355Z AUTO 00000KT 10SM CLR 20/19 A3002 RMK AO2 T02020194
KDAL 
17nm W 
210353Z 18003KT 10SM FEW025 BKN250 OVC300 23/19 A3001 RMK AO2 SLP155 T02330189 $
KRBD 
17nm W 
210353Z AUTO 00000KT 10SM CLR 22/19 A3001 RMK AO2 SLP155 T02170189
KADS 
20nm NW 
210355Z AUTO 16005KT 10SM CLR 22/18 A3003 RMK AO2 T02190183
TAF
KDAL 
17nm W 
210118Z 2101/2124 15005KT P6SM SCT035 BKN250 FM210300 03006KT P6SM SCT035 BKN250 TEMPO 2103/2105 BKN035 FM211300 04004KT P6SM BKN025 FM211600 06008KT P6SM SCT040
NOTAMs
Click for the latest NOTAMs
NOTAMs are issued by the DoD/FAA and will open in a separate window not controlled by AirNav.

 

 
 

FBO, Fuel Providers, and Aircraft Ground Support

  
 Business Name 
 
 Contact 
 
 Services / Description 
 
Fuel Prices
 
Comments
  
 Mesquite Metro Airport
972-216-4130
972-216-4132
[web site]
[email]
Airport management, Aviation fuel, Aircraft parking (ramp or tiedown), Passenger terminal and lounge, Catering, Pilot supplies, Rental cars, Courtesy transportation, ...
More info and photos of Mesquite Metro Airport
 
Avfuel Contract Fuel   AVTRIP   Crew cars   Enterprise Rent-A-Car   Hertz  
 
Avfuel
100LL Jet A
FS $5.00 $4.90 
SS $4.36 $4.45 
GUARANTEED
 
   4 read write
FS=Full service
SS=Self service
Update Fuel Prices
 

Aviation Businesses, Services, and Facilities

  
 Business Name 
 
 Contact 
 
 Services / Description 
 
Distance
 
Comments
  
Mesquite Aircraft Sales And Service 972-216-3597
[web site]
Aircraft ground handling, Oxygen service, Hangars, GPU / Power cart, Aircraft maintenance, Aircraft modifications, Aircraft cleaning / washing / detailing, Aircraft parts, ...

More info about Mesquite Aircraft Sales And Service
on airport  
   write
Mesquite Aviation 972-222-3546
[web site]
[email]
Flight training, Aircraft rental, Aerial tours / aerial sightseeing, Aerial photography, Aircraft maintenance, Aircraft cleaning / washing / detailing, Aircraft parts, Aviation accessories, ...

More info about Mesquite Aviation
on airport  
   1 read write
Michels Aviation 972-222-8128
[web site]
[email]
Oxygen service, Hangars, GPU / Power cart, Passenger terminal and lounge, Aircraft maintenance, Aircraft modifications, Aircraft cleaning / washing / detailing, Aircraft parts, ...
 
Wireless Internet Access (WiFi)   National Business Aviation Association  
 
More info about Michels Aviation
on airport  
   1 read write
 

Would you like to see your business listed on this page?

 If your business provides an interesting product or service to pilots, flight crews, aircraft, or users of the Mesquite Metro Airport, you should consider listing it here.  To start the listing process, click on the button below
 
Add a business
 

Other Pages about Mesquite Metro Airport

www.cityofmesquite.com/airport
 
Update a link
 
Copyright © AirNav, LLC. All rights reserved. Privacy Policy  Contact